Tiempo atmosférico en la estación meteorológica de Opakua, Araba/Álava (660 m.)



Fecha
DESCASC
Temp. máxima en grados centígrados (hora)
DESCASC
Temp. mínima en grados centígrados (hora)
DESCASC
Temp. media en grados centígrados
DESCASC
Racha de viento máxima en m/sg (hora)
DESCASC
Velocidad máxima media en intervalos de 10 minutos(hora)
DESCASC
Precipitaciones diarias en mm
DESCASC
Precipitaciones de 00:00 a 06:00 en mm
DESCASC
Precipitaciones de 06:00 a 12:00 en mm
DESCASC
Precipitaciones de 12:00 a 18:00 en mm
DESCASC
Precipitaciones de 18:00 a 24:00 en mm
DESCASC

Gráficas

Temp. máximas Temp. mínimas Temp. medias Precipitaciones Rachas de viento máximas Velocidades máximas media en intervalos de 10 minutos

Datos horarios

Fecha y hora oficial Temperatura (ºC) Velocidad del viento (km/h) Dirección del viento Racha (km/h) Dirección de racha Precipitación (mm) Presión (hPa) Tendencia (hPa) Humedad (%)
2020-02-20 23:00:00 6.7 4 Nordeste 15 Nordeste 0 -- -- 84
2020-02-20 22:00:00 6.4 4 Sudoeste 11 Sudoeste 0 -- -- 94
2020-02-20 21:00:00 5.9 6 Sur 9 Sur 0 -- -- 92
2020-02-20 20:00:00 6.4 6 Sudeste 10 Sudoeste 0 -- -- 82
2020-02-20 19:00:00 9.9 6 Sur 14 Noroeste 0 -- -- 74
2020-02-20 18:00:00 13 5 Noroeste 20 Noroeste 0 -- -- 68
2020-02-20 17:00:00 15.5 8 Noroeste 15 Noroeste 0 -- -- 46
2020-02-20 16:00:00 15.8 5 Oeste 19 Oeste 0 -- -- 41
2020-02-20 15:00:00 15.7 9 Oeste 18 Oeste 0 -- -- 45
2020-02-20 14:00:00 14.7 10 Noroeste 15 Oeste 0 -- -- 46
2020-02-20 13:00:00 13.6 5 Oeste 16 Noroeste 0 -- -- 46
2020-02-20 12:00:00 12.5 2 Este 8 Norte 0 -- -- 55
2020-02-20 11:00:00 9.7 3 Norte 6 Norte 0 -- -- 63
2020-02-20 10:00:00 7.6 2 Sudeste 6 Nordeste 0 -- -- 67
2020-02-20 09:00:00 3.9 5 Sudeste 17 Sudeste 0 -- -- 78
2020-02-20 08:00:00 0.7 8 Sudeste 12 Sudeste 0 -- -- 82
2020-02-20 07:00:00 4 5 Nordeste 23 Sudeste 0 -- -- 71
2020-02-20 06:00:00 -- -- -- -- -- -- -- -- --
2020-02-20 05:00:00 2.6 5 Sudeste 14 Sudeste 0 -- -- 75
2020-02-20 04:00:00 2.2 10 Sudeste 15 Sudeste 0 -- -- 78
2020-02-20 03:00:00 2.5 11 Sudeste 15 Sudeste 0 -- -- 76
2020-02-20 02:00:00 1.9 8 Sudeste 15 Sudeste 0 -- -- 80
2020-02-20 01:00:00 2.1 10 Sudeste 13 Sudeste 0 -- -- 79
2020-02-20 00:00:00 2.2 8 Sudeste 15 Sudeste 0 -- -- 80
2020-02-19 23:00:00 2.8 9 Sudeste 15 Sudeste 0 -- -- 78
2020-02-19 22:00:00 2.9 10 Sudeste 13 Sudeste 0 -- -- 78
2020-02-19 21:00:00 3 9 Sudeste 15 Sudeste 0 -- -- 79
2020-02-19 20:00:00 4.1 13 Sudeste 15 Sudeste 0 -- -- 72
2020-02-19 19:00:00 6.4 10 Sudeste 12 Sudeste 0 -- -- 76
2020-02-19 18:00:00 11.5 0 Calma 6 Oeste 0 -- -- 63
2020-02-19 17:00:00 11.9 4 Sudoeste 9 Oeste 0 -- -- 62
2020-02-19 16:00:00 10.7 4 Norte 9 Noroeste 0 -- -- 64
2020-02-19 15:00:00 10.3 4 Noroeste 14 Noroeste 0 -- -- 69
2020-02-19 14:00:00 9.6 5 Sudoeste 12 Noroeste 0 -- -- 68
2020-02-19 13:00:00 7.6 5 Oeste 8 Oeste 0 -- -- 80
2020-02-19 12:00:00 6 3 Noroeste 6 Noroeste 0 -- -- 86
2020-02-19 11:00:00 5.1 4 Noroeste 12 Norte 0 -- -- 91
2020-02-19 10:00:00 2.8 5 Norte 13 Norte 0 -- -- 98
2020-02-19 09:00:00 0.2 2 Nordeste 6 Sudeste 0 -- -- 99
2020-02-19 08:00:00 -0.3 4 Sudeste 8 Sudeste 0 -- -- 99
2020-02-19 07:00:00 -0.8 6 Sudeste 10 Sudeste 0 -- -- 98
2020-02-19 06:00:00 -0.6 9 Sudeste 12 Sudeste 0 -- -- 98
2020-02-19 05:00:00 -0.5 7 Sudeste 10 Sudeste 0 -- -- 98
2020-02-19 04:00:00 -0.4 7 Sudeste 10 Sudeste 0 -- -- 98
2020-02-19 03:00:00 -0.3 7 Sudeste 11 Sudeste 0 -- -- 98
2020-02-19 02:00:00 0.3 7 Sudeste 12 Sudeste 0 -- -- 97
2020-02-19 01:00:00 0.2 7 Sudeste 10 Sudeste 0 -- -- 97
2020-02-19 00:00:00 0.5 7 Sudeste 9 Sudeste 0 -- -- 96
2020-02-18 23:00:00 0.9 5 Sudeste 12 Sudeste 0 -- -- 95
2020-02-18 22:00:00 1.5 7 Sudeste 10 Sudeste 0 -- -- 93
2020-02-18 21:00:00 3.3 4 Sudeste 6 Sudeste 0 -- -- 89
2020-02-18 20:00:00 4.2 3 Oeste 6 Oeste 0 -- -- 88
2020-02-18 19:00:00 4.7 6 Noroeste 15 Noroeste 0 -- -- 85
2020-02-18 18:00:00 6 11 Norte 27 Noroeste 0 -- -- 82
2020-02-18 17:00:00 6.8 11 Noroeste 22 Noroeste 0 -- -- 78
2020-02-18 16:00:00 7.8 13 Noroeste 22 Noroeste 0 -- -- 74
2020-02-18 15:00:00 8.2 11 Noroeste 23 Noroeste 0 -- -- 65
2020-02-18 14:00:00 9 13 Noroeste 26 Noroeste 0 -- -- 67
2020-02-18 13:00:00 7.9 11 Noroeste 17 Noroeste 0 -- -- 74
2020-02-18 12:00:00 6.8 6 Noroeste 17 Oeste 0 -- -- 84
2020-02-18 11:00:00 5 6 Oeste 11 Oeste 0 -- -- 97
2020-02-18 10:00:00 3.9 3 Oeste 8 Oeste 0 -- -- 99
2020-02-18 09:00:00 2.3 2 Este 6 Sudeste 0 -- -- 99
2020-02-18 08:00:00 0.9 5 Sudeste 8 Sudeste 0 -- -- 97
2020-02-18 07:00:00 1.4 6 Sudeste 9 Sudeste 0 -- -- 96
2020-02-18 06:00:00 3.5 3 Sudeste 6 Sudoeste 0 -- -- 95
2020-02-18 05:00:00 4.2 4 Noroeste 7 Noroeste 0 -- -- 96
2020-02-18 04:00:00 3.8 2 Sur 6 Sudoeste 0 -- -- 96
2020-02-18 03:00:00 4.1 3 Sudeste 10 Oeste 0 -- -- 93
2020-02-18 02:00:00 4.8 0 Calma 8 Oeste 0 -- -- 94
2020-02-18 01:00:00 4.7 3 Oeste 9 Sudoeste 0 -- -- 95
2020-02-18 00:00:00 5 6 Oeste 13 Oeste 0 -- -- 94
2020-02-17 23:00:00 5.1 3 Oeste 8 Sudoeste 0 -- -- 91
2020-02-17 22:00:00 5.4 5 Oeste 19 Norte 0 -- -- 89
2020-02-17 21:00:00 5.8 9 Norte 23 Norte 0 -- -- 88
2020-02-17 20:00:00 6.2 4 Oeste 19 Noroeste 0 -- -- 88
2020-02-17 19:00:00 6.4 9 Noroeste 24 Noroeste 0 -- -- 88
2020-02-17 18:00:00 6.6 12 Noroeste 21 Noroeste 0.2 -- -- 90
2020-02-17 17:00:00 6.7 10 Noroeste 20 Noroeste 0 -- -- 90
2020-02-17 16:00:00 6.8 9 Norte 18 Norte 0.4 -- -- 92
2020-02-17 15:00:00 7.7 9 Norte 18 Noroeste 0 -- -- 88
2020-02-17 14:00:00 7.7 15 Noroeste 20 Noroeste 0.2 -- -- 92
2020-02-17 13:00:00 7.3 6 Norte 15 Norte 0.2 -- -- 95
2020-02-17 12:00:00 7.5 10 Noroeste 22 Noroeste 0.2 -- -- 96
2020-02-17 11:00:00 7.8 10 Noroeste 22 Oeste 1.2 -- -- 98
2020-02-17 10:00:00 7.9 13 Oeste 22 Oeste 0.4 -- -- 94
2020-02-17 09:00:00 11.6 13 Oeste 34 Sudoeste 0 -- -- 82
2020-02-17 08:00:00 12.3 11 Sudoeste 26 Sudoeste 0 -- -- 78
2020-02-17 07:00:00 12.3 7 Oeste 34 Sudoeste 0 -- -- 76
2020-02-17 06:00:00 13.5 15 Oeste 40 Oeste 0 -- -- 69
2020-02-17 05:00:00 13.2 10 Oeste 32 Sur 0 -- -- 70
2020-02-17 04:00:00 13.5 15 Sudoeste 40 Sur 0 -- -- 68
2020-02-17 03:00:00 13.3 13 Sudoeste 43 Oeste 0 -- -- 69
2020-02-17 02:00:00 13 9 Oeste 29 Oeste 0 -- -- 68
2020-02-17 01:00:00 13.4 14 Sudoeste 48 Sudoeste 0 -- -- 65
2020-02-17 00:00:00 13.9 16 Sudoeste 45 Sudoeste 0 -- -- 63
2020-02-16 23:00:00 13.8 19 Sudoeste 45 Sudoeste 0 -- -- 63
2020-02-16 22:00:00 13.7 17 Sudoeste 38 Oeste 0 -- -- 65
2020-02-16 21:00:00 13.2 11 Sur 21 Sur 0 -- -- 70
2020-02-16 20:00:00 14 11 Sudoeste 20 Sur 0 -- -- 61
2020-02-16 19:00:00 13.2 10 Sudeste 19 Sudoeste 0 -- -- 63
2020-02-16 18:00:00 14.9 11 Sur 22 Sur 0 -- -- 54
2020-02-16 17:00:00 15.6 14 Sur 29 Sur 0 -- -- 50
2020-02-16 16:00:00 15.1 13 Sur 26 Sudoeste 0 -- -- 54
2020-02-16 15:00:00 15.7 14 Sur 27 Sudoeste 0 -- -- 57
2020-02-16 14:00:00 14.7 18 Sur 29 Sur 0 -- -- 60
2020-02-16 13:00:00 14.2 4 Sudoeste 18 Sudoeste 0 -- -- 67
2020-02-16 12:00:00 14.7 5 Sudoeste 19 Sur 0 -- -- 63
2020-02-16 11:00:00 13.4 4 Sudeste 26 Sudeste 0 -- -- 67
2020-02-16 10:00:00 10.5 9 Este 28 Este 0 -- -- 74
2020-02-16 09:00:00 9 11 Sudeste 24 Sudeste 0 -- -- 82
2020-02-16 08:00:00 8.2 8 Sudeste 12 Este 0 -- -- 82
2020-02-16 07:00:00 7.5 3 Este 14 Sudeste 0 -- -- 81
2020-02-16 06:00:00 7 5 Este 14 Sur 0 -- -- 83
2020-02-16 05:00:00 9 9 Este 24 Sudeste 0 -- -- 77
2020-02-16 04:00:00 9 10 Sudeste 29 Sudeste 0 -- -- 81
2020-02-16 03:00:00 10 14 Sudeste 21 Sudeste 0 -- -- 79
2020-02-16 02:00:00 10.4 6 Nordeste 30 Sudeste 0 -- -- 78
2020-02-16 01:00:00 9.8 14 Sudeste 24 Sudeste 0 -- -- 83
2020-02-16 00:00:00 11.1 8 Este 23 Oeste 0 -- -- 66
2020-02-15 23:00:00 8.6 6 Sudeste 23 Sudeste 0 -- -- 77
2020-02-15 22:00:00 10.2 11 Sudeste 20 Sudeste 0 -- -- 74
2020-02-15 21:00:00 10.4 11 Sudeste 19 Sudeste 0 -- -- 73
2020-02-15 20:00:00 10.2 9 Sudeste 13 Sudeste 0 -- -- 77
2020-02-15 19:00:00 12.9 5 Sur 14 Sudeste 0 -- -- 68
2020-02-15 18:00:00 13.8 5 Sur 19 Sur 0 -- -- 68
2020-02-15 17:00:00 14.3 11 Sur 20 Sudoeste 0 -- -- 67
2020-02-15 16:00:00 15.6 10 Sudoeste 20 Sudoeste 0 -- -- 61
2020-02-15 15:00:00 15.6 8 Sudoeste 22 Sur 0 -- -- 61
2020-02-15 14:00:00 15.6 9 Noroeste 26 Sudoeste 0 -- -- 55
2020-02-15 13:00:00 15.2 9 Sudoeste 22 Sudoeste 0 -- -- 59
2020-02-15 12:00:00 13.5 10 Oeste 18 Oeste 0 -- -- 68
2020-02-15 11:00:00 12.4 8 Oeste 16 Oeste 0 -- -- 72
2020-02-15 10:00:00 9.7 6 Sudeste 11 Sudeste 0 -- -- 82
2020-02-15 09:00:00 5.5 3 Sudeste 15 Sudeste 0 -- -- 90
2020-02-15 08:00:00 6.3 9 Sur 17 Sur 0 -- -- 88
2020-02-15 07:00:00 5.1 7 Este 15 Sudeste 0 -- -- 94
2020-02-15 06:00:00 4.6 5 Sudeste 14 Sudeste 0 -- -- 96
2020-02-15 05:00:00 4.2 12 Sudeste 15 Sudeste 0 -- -- 97
2020-02-15 04:00:00 4.1 7 Sudeste 11 Sudeste 0 -- -- 96
2020-02-15 03:00:00 4.2 6 Sudeste 12 Sudeste 0 -- -- 95
2020-02-15 02:00:00 4.6 9 Sudeste 13 Sudeste 0 -- -- 94
2020-02-15 01:00:00 4.9 9 Sudeste 12 Sudeste 0 -- -- 93
2020-02-15 00:00:00 5.6 9 Sudeste 12 Sudeste 0 -- -- 92
2020-02-14 23:00:00 6.1 9 Sudeste 13 Sudeste 0 -- -- 90
2020-02-14 22:00:00 6.5 10 Sudeste 13 Sudeste 0 -- -- 89
2020-02-14 21:00:00 7.6 12 Sudeste 14 Sudeste 0 -- -- 85
2020-02-14 20:00:00 9.3 9 Sudeste 13 Sudeste 0 -- -- 79
2020-02-14 19:00:00 10 10 Sudeste 13 Sudeste 0 -- -- 76
2020-02-14 18:00:00 15 4 Sudoeste 8 Noroeste 0 -- -- 62
2020-02-14 17:00:00 14.7 4 Norte 11 Noroeste 0 -- -- 64
2020-02-14 16:00:00 15 6 Oeste 12 Norte 0 -- -- 66
2020-02-14 15:00:00 13.9 5 Norte 12 Nordeste 0 -- -- 67
2020-02-14 14:00:00 13.8 3 Sur 13 Oeste 0 -- -- 68
2020-02-14 13:00:00 12.9 4 Sudoeste 10 Sudoeste 0 -- -- 73
2020-02-14 12:00:00 11.2 3 Oeste 10 Noroeste 0 -- -- 82
2020-02-14 11:00:00 10 0 Calma 5 Oeste 0 -- -- 90
2020-02-14 10:00:00 8.8 0 Calma 5 Nordeste 0 -- -- 97
2020-02-14 09:00:00 8.4 0 Calma 5 Norte 0 -- -- 98
2020-02-14 08:00:00 8.3 4 Oeste 6 Sudoeste 0 -- -- 97
2020-02-14 07:00:00 8.4 4 Sudoeste 6 Sur 0 -- -- 96
2020-02-14 06:00:00 8.6 0 Calma 4 Sudeste 0 -- -- 95
2020-02-14 05:00:00 8.6 0 Calma 3 Sudeste 0 -- -- 94
2020-02-14 04:00:00 8.6 2 Sudoeste 6 Sudoeste 0 -- -- 94
2020-02-14 03:00:00 8.8 4 Sudoeste 8 Sudoeste 0 -- -- 94
2020-02-14 02:00:00 8.9 5 Sudoeste 8 Sudoeste 0 -- -- 94
2020-02-14 01:00:00 9 4 Sudoeste 7 Sur 0 -- -- 94
2020-02-14 00:00:00 9.2 2 Oeste 10 Sur 0 -- -- 93
2020-02-13 23:00:00 9.5 5 Sudoeste 16 Oeste 0 -- -- 93
2020-02-13 22:00:00 9.9 7 Sudoeste 18 Oeste 0 -- -- 92
2020-02-13 21:00:00 9.5 4 Sudeste 11 Sudoeste 0 -- -- 87
2020-02-13 20:00:00 10.9 5 Sudoeste 13 Sudoeste 0 -- -- 81
2020-02-13 19:00:00 12 4 Sur 18 Sudoeste 0 -- -- 72
2020-02-13 18:00:00 14.9 10 Oeste 25 Oeste 0 -- -- 66
2020-02-13 17:00:00 15.2 13 Sudoeste 28 Oeste 0 -- -- 65
2020-02-13 16:00:00 14.9 8 Oeste 31 Sudoeste 0 -- -- 65
2020-02-13 15:00:00 15.5 18 Oeste 39 Sudoeste 0 -- -- 69
2020-02-13 14:00:00 14.8 18 Oeste 36 Sudoeste 0 -- -- 73
2020-02-13 13:00:00 13.6 14 Oeste 32 Oeste 0 -- -- 76
2020-02-13 12:00:00 14 13 Sudoeste 34 Sudoeste 0 -- -- 71
2020-02-13 11:00:00 11.8 13 Sudoeste 30 Sudoeste 0 -- -- 79
2020-02-13 10:00:00 10.8 5 Oeste 26 Oeste 0 -- -- 83
2020-02-13 09:00:00 10.6 15 Sudoeste 42 Sur 0 -- -- 83
2020-02-13 08:00:00 10.7 14 Sur 28 Sudoeste 0 -- -- 82
2020-02-13 07:00:00 8.7 4 Sudeste 14 Sudoeste 0 -- -- 91
2020-02-13 06:00:00 9 6 Nordeste 23 Sur 0 -- -- 89
2020-02-13 05:00:00 8.4 21 Sudeste 38 Este 0 -- -- 90
2020-02-13 04:00:00 9.3 12 Este 34 Este 0 -- -- 85
2020-02-13 03:00:00 9.2 12 Sudeste 33 Sudeste 0 -- -- 84
2020-02-13 02:00:00 9.7 17 Este 30 Este 0 -- -- 83
2020-02-13 01:00:00 9.8 6 Sur 20 Nordeste 0 -- -- 81
2020-02-13 00:00:00 8.5 6 Norte 26 Sudeste 0 -- -- 86
2020-02-12 23:00:00 7.8 6 Sudeste 20 Este 0 -- -- 86
2020-02-12 22:00:00 7.2 4 Sudeste 12 Sudeste 0 -- -- 91
2020-02-12 21:00:00 6.5 6 Sudeste 10 Sudeste 0 -- -- 91
2020-02-12 20:00:00 7.4 8 Sudeste 11 Sudeste 0 -- -- 88
2020-02-12 19:00:00 9.1 8 Sudeste 10 Sudeste 0 -- -- 82
2020-02-12 18:00:00 11.4 2 Norte 8 Noroeste 0 -- -- 76
2020-02-12 17:00:00 12.9 5 Noroeste 10 Sudoeste 0 -- -- 71
2020-02-12 16:00:00 12.4 4 Noroeste 11 Oeste 0 -- -- 72
2020-02-12 15:00:00 11.3 2 Noroeste 10 Norte 0 -- -- 73
2020-02-12 14:00:00 10.7 4 Noroeste 9 Norte 0 -- -- 77
2020-02-12 13:00:00 10.1 4 Oeste 8 Noroeste 0 -- -- 81
2020-02-12 12:00:00 9.4 3 Noroeste 6 Noroeste 0 -- -- 83
2020-02-12 11:00:00 8.7 2 Noroeste 6 Noroeste 0 -- -- 91
2020-02-12 10:00:00 7.8 2 Sudeste 6 Nordeste 0 -- -- 100
2020-02-12 09:00:00 7 3 Noroeste 6 Oeste 0 -- -- 100
2020-02-12 08:00:00 7.1 3 Oeste 8 Noroeste 0 -- -- 100
2020-02-12 07:00:00 7.1 2 Sudoeste 5 Noroeste 0 -- -- 100
2020-02-12 06:00:00 7.2 3 Sudoeste 6 Oeste 0 -- -- 100
2020-02-12 05:00:00 7.3 4 Oeste 10 Oeste 0 -- -- 100
2020-02-12 04:00:00 7.4 3 Sudoeste 7 Oeste 0 -- -- 99
2020-02-12 03:00:00 7.4 2 Sudoeste 5 Noroeste 0 -- -- 98
2020-02-12 02:00:00 7.5 0 Calma 5 Sur 0 -- -- 97
2020-02-12 01:00:00 7.4 3 Oeste 4 Oeste 0 -- -- 97
2020-02-12 00:00:00 7.3 0 Calma 5 Nordeste 0 -- -- 97
2020-02-11 23:00:00 7.5 4 Nordeste 6 Este 0 -- -- 96
2020-02-11 22:00:00 8.1 4 Sudeste 5 Sudeste 0 -- -- 96
2020-02-11 21:00:00 8.1 0 Calma 4 Este 0 -- -- 96
2020-02-11 20:00:00 8.2 4 Noroeste 17 Noroeste 0 -- -- 96
2020-02-11 19:00:00 8.3 8 Noroeste 21 Noroeste 0 -- -- 96
2020-02-11 18:00:00 9 10 Noroeste 17 Noroeste 0 -- -- 94
2020-02-11 17:00:00 10 11 Norte 19 Norte 0 -- -- 90
2020-02-11 16:00:00 10.9 4 Noroeste 8 Noroeste 0 -- -- 87
2020-02-11 15:00:00 10.7 3 Sur 8 Sudoeste 0 -- -- 88
2020-02-11 14:00:00 9.8 4 Sudoeste 10 Sudoeste 0 -- -- 91
2020-02-11 13:00:00 9.6 5 Sudoeste 17 Oeste 0 -- -- 93
2020-02-11 12:00:00 8.7 6 Oeste 10 Oeste 0 -- -- 97
2020-02-11 11:00:00 8.3 0 Calma 5 Sur 0.4 -- -- 98
2020-02-11 10:00:00 8.2 2 Norte 9 Noroeste 0.2 -- -- 98
2020-02-11 09:00:00 7.9 4 Noroeste 10 Noroeste 0 -- -- 97
2020-02-11 08:00:00 7.5 3 Sur 6 Sudoeste 0 -- -- 96
2020-02-11 07:00:00 6.9 2 Sur 10 Sudeste 0 -- -- 97
2020-02-11 06:00:00 6 9 Sudeste 11 Sudeste 0 -- -- 96
2020-02-11 05:00:00 6.3 5 Este 12 Sudeste 0 -- -- 96
2020-02-11 04:00:00 6.5 9 Sudeste 12 Sudeste 0 -- -- 95
2020-02-11 03:00:00 6.8 2 Sur 16 Sudeste 0 -- -- 95
2020-02-11 02:00:00 7.1 8 Sudeste 11 Sudeste 0 -- -- 95
2020-02-11 01:00:00 7.4 10 Sudeste 13 Sudeste 0 -- -- 96
2020-02-11 00:00:00 7 8 Sudeste 13 Sudeste 0 -- -- 93
2020-02-10 23:00:00 7.7 9 Sudeste 12 Sudeste 0 -- -- 93
2020-02-10 22:00:00 8.1 5 Sudeste 11 Sudeste 0 -- -- 92
2020-02-10 21:00:00 8.2 10 Sudeste 13 Sudeste 0 -- -- 90
2020-02-10 20:00:00 9.2 9 Sudeste 11 Sudeste 0 -- -- 86
2020-02-10 19:00:00 11.9 4 Sur 15 Oeste 0 -- -- 77
2020-02-10 18:00:00 14.6 11 Oeste 24 Sudoeste 0 -- -- 72
2020-02-10 17:00:00 15.8 15 Oeste 30 Oeste 0 -- -- 69
2020-02-10 16:00:00 16.6 17 Oeste 31 Oeste 0 -- -- 67
2020-02-10 15:00:00 16.8 18 Oeste 30 Oeste 0 -- -- 68
2020-02-10 14:00:00 16.3 16 Oeste 33 Oeste 0 -- -- 70
2020-02-10 13:00:00 14.4 14 Oeste 26 Oeste 0 -- -- 76
2020-02-10 12:00:00 14.2 13 Oeste 25 Oeste 0 -- -- 78
2020-02-10 11:00:00 12.6 9 Sudoeste 26 Sudoeste 0 -- -- 81
2020-02-10 10:00:00 11.6 10 Oeste 21 Oeste 0 -- -- 86
2020-02-10 09:00:00 10.7 5 Oeste 12 Oeste 0 -- -- 88
2020-02-10 08:00:00 10.8 3 Oeste 7 Sudoeste 0 -- -- 87
2020-02-10 07:00:00 10.6 3 Sudeste 10 Oeste 0 -- -- 87
2020-02-10 06:00:00 10.9 8 Sudoeste 21 Sudoeste 0 -- -- 86
2020-02-10 05:00:00 10.1 4 Este 8 Oeste 0 -- -- 90
2020-02-10 04:00:00 9.9 3 Nordeste 6 Sudoeste 0 -- -- 87
2020-02-10 03:00:00 10.1 4 Sur 8 Oeste 0 -- -- 86
2020-02-10 02:00:00 10.1 3 Sudeste 13 Sudoeste 0 -- -- 84
2020-02-10 01:00:00 10.6 4 Este 15 Sudoeste 0 -- -- 81
2020-02-10 00:00:00 11.5 11 Sudoeste 23 Sudoeste 0 -- -- 79
2020-02-09 23:00:00 11.9 8 Sur 25 Sudoeste 0 -- -- 77
2020-02-09 22:00:00 12 12 Sudoeste 27 Oeste 0 -- -- 76
2020-02-09 21:00:00 11.8 9 Oeste 37 Sudoeste 0 -- -- 77
2020-02-09 20:00:00 11.8 11 Sudoeste 28 Sudoeste 0 -- -- 76
2020-02-09 19:00:00 11.7 13 Sur 23 Oeste 0 -- -- 75
2020-02-09 18:00:00 11.9 6 Sudoeste 23 Sudoeste 0 -- -- 75
2020-02-09 17:00:00 12.9 11 Sudoeste 28 Sudoeste 0 -- -- 72
2020-02-09 16:00:00 12.6 8 Sur 21 Sudoeste 0 -- -- 74
2020-02-09 15:00:00 12.2 10 Sudoeste 27 Sudoeste 0 -- -- 75
2020-02-09 14:00:00 11 7 Sur 21 Sudoeste 0 -- -- 78
2020-02-09 13:00:00 10.1 9 Oeste 26 Oeste 0 -- -- 82
2020-02-09 12:00:00 10.3 10 Sur 23 Sur 0 -- -- 80
2020-02-09 11:00:00 10.4 12 Sur 24 Sur 0 -- -- 78
2020-02-09 10:00:00 9.2 13 Sudeste 42 Sur 0 -- -- 81
2020-02-09 09:00:00 8.2 22 Sur 41 Sudeste 0 -- -- 83
2020-02-09 08:00:00 5.7 29 Sudeste 38 Sudeste 0 -- -- 92
2020-02-09 07:00:00 6.3 13 Sur 25 Sur 0 -- -- 90
2020-02-09 06:00:00 6.1 5 Norte 34 Sudeste 0 -- -- 91
2020-02-09 05:00:00 6.2 12 Sudeste 19 Sudeste 0 -- -- 89
2020-02-09 04:00:00 6.6 12 Sur 18 Sur 0 -- -- 95
2020-02-09 03:00:00 3.9 7 Sudeste 11 Sudeste 0 -- -- 100
2020-02-09 02:00:00 4.2 4 Nordeste 10 Sudeste 0 -- -- 99
2020-02-09 01:00:00 4.5 3 Sudeste 10 Norte 0 -- -- 99
2020-02-09 00:00:00 6.2 4 Nordeste 8 Nordeste 0 -- -- 99
2020-02-08 23:00:00 7 2 Norte 6 Oeste 0 -- -- 98
2020-02-08 22:00:00 7.2 3 Oeste 5 Oeste 0 -- -- 99
2020-02-08 21:00:00 7.3 2 Sudoeste 9 Oeste 0.2 -- -- 99
2020-02-08 20:00:00 7.5 5 Oeste 8 Oeste 0.2 -- -- 98
2020-02-08 19:00:00 7.8 4 Oeste 7 Oeste 0.2 -- -- 98
2020-02-08 18:00:00 8.3 4 Oeste 7 Oeste 0.2 -- -- 96
2020-02-08 17:00:00 8.6 3 Noroeste 8 Oeste 0 -- -- 94
2020-02-08 16:00:00 8.9 4 Norte 8 Noroeste 0 -- -- 94
2020-02-08 15:00:00 8.6 4 Nordeste 6 Norte 0.4 -- -- 95
2020-02-08 14:00:00 8.6 0 Calma 5 Nordeste 0.8 -- -- 93
2020-02-08 13:00:00 8.6 4 Nordeste 6 Norte 0.8 -- -- 91
2020-02-08 12:00:00 8.7 0 Calma 7 Norte 0 -- -- 86
2020-02-08 11:00:00 8.7 5 Norte 15 Oeste 0 -- -- 86
2020-02-08 10:00:00 8.7 7 Sudoeste 17 Sudoeste 0 -- -- 88
2020-02-08 09:00:00 5.9 5 Noroeste 14 Norte 0 -- -- 89
2020-02-08 08:00:00 6.4 4 Nordeste 16 Sudoeste 0 -- -- 85
2020-02-08 07:00:00 5.3 5 Sur 12 Sudeste 0 -- -- 90
2020-02-08 06:00:00 5.5 4 Este 16 Sudeste 0 -- -- 85
2020-02-08 05:00:00 6.5 8 Sudeste 21 Sudeste 0 -- -- 84
2020-02-08 04:00:00 6.5 4 Sudoeste 16 Norte 0 -- -- 82
2020-02-08 03:00:00 4.5 5 Nordeste 8 Norte 0 -- -- 87
2020-02-08 02:00:00 6.3 4 Norte 10 Norte 0 -- -- 83
2020-02-08 01:00:00 6.2 2 Nordeste 12 Sudeste 0 -- -- 80
2020-02-08 00:00:00 6.1 4 Este 9 Norte 0 -- -- 80
2020-02-07 23:00:00 9 7 Sudoeste 24 Sudoeste 0 -- -- 73
2020-02-07 22:00:00 6.3 3 Este 10 Sudoeste 0 -- -- 81
2020-02-07 21:00:00 8.3 4 Sur 21 Sur 0 -- -- 75
2020-02-07 20:00:00 9.3 7 Sur 18 Sudoeste 0 -- -- 72
2020-02-07 19:00:00 10.2 8 Sur 18 Sur 0 -- -- 70
2020-02-07 18:00:00 11.6 8 Sur 18 Sur 0 -- -- 66
2020-02-07 17:00:00 12.9 9 Sur 17 Sur 0 -- -- 62
2020-02-07 16:00:00 13.6 7 Sur 19 Sudoeste 0 -- -- 61
2020-02-07 15:00:00 13.9 8 Sudoeste 20 Oeste 0 -- -- 60
2020-02-07 14:00:00 13.1 4 Sudoeste 29 Sudeste 0 -- -- 62
2020-02-07 13:00:00 10.9 16 Sudeste 28 Sudeste 0 -- -- 67
2020-02-07 12:00:00 9.9 7 Nordeste 19 Este 0 -- -- 69
2020-02-07 11:00:00 8.7 7 Este 30 Sudeste 0 -- -- 73
2020-02-07 10:00:00 7.7 12 Sudeste 32 Sudeste 0 -- -- 76
2020-02-07 09:00:00 6.3 8 Este 45 Este 0 -- -- 80
2020-02-07 08:00:00 5.6 16 Sur 43 Sudeste 0 -- -- 83
2020-02-07 07:00:00 5.7 27 Sudeste 47 Sudeste 0 -- -- 83
2020-02-07 06:00:00 6.4 18 Sudeste 48 Este 0 -- -- 78
2020-02-07 05:00:00 6.7 21 Sudeste 53 Sudeste 0 -- -- 79
2020-02-07 04:00:00 7 30 Sudeste 47 Sudeste 0 -- -- 79
2020-02-07 03:00:00 7.5 17 Sudeste 48 Sudeste 0 -- -- 79
2020-02-07 02:00:00 7.8 18 Sudeste 58 Sudeste 0 -- -- 78
2020-02-07 01:00:00 8.1 39 Sudeste 57 Este 0 -- -- 75
2020-02-07 00:00:00 8.3 26 Sudeste 47 Sudeste 0 -- -- 71
2020-02-06 23:00:00 8.4 30 Sudeste 49 Sudeste 0 -- -- 64
2020-02-06 22:00:00 8.7 27 Sudeste 44 Sudeste 0 -- -- 61
2020-02-06 21:00:00 8.6 27 Sudeste 42 Sudeste 0 -- -- 64
2020-02-06 20:00:00 9.1 23 Sudeste 42 Este 0 -- -- 60
2020-02-06 19:00:00 9.2 29 Sudeste 46 Sudeste 0 -- -- 61
2020-02-06 18:00:00 10.1 26 Sudeste 42 Sudeste 0 -- -- 55
2020-02-06 17:00:00 11.4 26 Sudeste 45 Sudeste 0 -- -- 50
2020-02-06 16:00:00 11.9 23 Sudeste 47 Sudeste 0 -- -- 54
2020-02-06 15:00:00 12 23 Sudeste 47 Sudeste 0 -- -- 56
2020-02-06 14:00:00 11.1 30 Sudeste 58 Sudeste 0 -- -- 56
2020-02-06 13:00:00 10.1 38 Sudeste 67 Sudeste 0 -- -- 58
2020-02-06 12:00:00 8.9 49 Sudeste 72 Sudeste 0 -- -- 60
2020-02-06 11:00:00 8.1 39 Sudeste 68 Este 0 -- -- 63
2020-02-06 10:00:00 6.7 42 Sudeste 63 Sudeste 0 -- -- 68
2020-02-06 09:00:00 5.5 41 Sudeste 62 Sudeste 0 -- -- 70
2020-02-06 08:00:00 5.3 41 Sudeste 61 Sudeste 0 -- -- 69
2020-02-06 07:00:00 5.6 37 Sudeste 67 Sudeste 0 -- -- 68
2020-02-06 06:00:00 5.7 23 Este 42 Este 0 -- -- 66
2020-02-06 05:00:00 5.7 16 Este 47 Este 0 -- -- 63
2020-02-06 04:00:00 5.7 5 Norte 31 Noroeste 0 -- -- 60
2020-02-06 03:00:00 4.1 11 Nordeste 20 Norte 0 -- -- 67
2020-02-06 02:00:00 4.2 8 Nordeste 15 Nordeste 0 -- -- 70
2020-02-06 01:00:00 2.8 4 Noroeste 12 Oeste 0 -- -- 83
2020-02-06 00:00:00 1 5 Este 10 Sudeste 0 -- -- 92
2020-02-05 23:00:00 0.8 8 Sudeste 14 Sudeste 0 -- -- 88
2020-02-05 22:00:00 1.3 3 Sur 12 Sudeste 0 -- -- 89
2020-02-05 21:00:00 3.2 7 Sudeste 10 Sudeste 0 -- -- 79
2020-02-05 20:00:00 5 4 Sur 12 Norte 0 -- -- 75
2020-02-05 19:00:00 5.9 9 Este 15 Este 0 -- -- 70
2020-02-05 18:00:00 9.2 3 Noroeste 13 Nordeste 0 -- -- 63
2020-02-05 17:00:00 9.2 8 Nordeste 26 Norte 0 -- -- 61
2020-02-05 16:00:00 9.3 14 Nordeste 26 Nordeste 0 -- -- 62
2020-02-05 15:00:00 8.9 17 Nordeste 27 Nordeste 0 -- -- 61
2020-02-05 14:00:00 8.7 13 Este 22 Nordeste 0 -- -- 56
2020-02-05 13:00:00 8.4 6 Norte 14 Norte 0 -- -- 56
2020-02-05 12:00:00 7.6 6 Oeste 12 Noroeste 0 -- -- 62
2020-02-05 11:00:00 6.9 4 Oeste 8 Sudoeste 0 -- -- 65
2020-02-05 10:00:00 4.1 4 Sudeste 10 Sudeste 0 -- -- 81
2020-02-05 09:00:00 0.8 8 Sudeste 12 Sudeste 0 -- -- 94
2020-02-05 08:00:00 2.2 5 Sudeste 13 Norte 0 -- -- 90
2020-02-05 07:00:00 3.5 3 Nordeste 6 Nordeste 0 -- -- 90
2020-02-05 06:00:00 3.8 3 Sudoeste 8 Oeste 0 -- -- 97
2020-02-05 05:00:00 4.1 5 Noroeste 12 Noroeste 0 -- -- 98
2020-02-05 04:00:00 4.1 3 Sur 6 Sudoeste 0 -- -- 97
2020-02-05 03:00:00 3.8 3 Sur 13 Oeste 0 -- -- 95
2020-02-05 02:00:00 4.5 4 Oeste 12 Sudoeste 0 -- -- 93
2020-02-05 01:00:00 4.2 5 Oeste 15 Noroeste 0 -- -- 90
2020-02-05 00:00:00 5 13 Noroeste 20 Noroeste 0 -- -- 88
2020-02-04 23:00:00 5.2 15 Noroeste 22 Noroeste 0 -- -- 86
2020-02-04 22:00:00 5.4 12 Noroeste 18 Oeste 0 -- -- 87
2020-02-04 21:00:00 5.4 12 Noroeste 19 Noroeste 0 -- -- 85
2020-02-04 20:00:00 5.9 11 Noroeste 22 Noroeste 0 -- -- 80
2020-02-04 19:00:00 6.2 15 Noroeste 26 Noroeste 0 -- -- 82
2020-02-04 18:00:00 7.1 15 Noroeste 23 Noroeste 0 -- -- 78
2020-02-04 12:00:00 -- -- -- -- -- -- -- -- --
2020-02-04 11:00:00 10.1 12 Noroeste 19 Noroeste 0 -- -- 96
2020-02-04 10:00:00 10.3 13 Noroeste 20 Oeste 0 -- -- 93
2020-02-04 09:00:00 10 5 Oeste 12 Oeste 0 -- -- 93
2020-02-04 08:00:00 9.9 6 Oeste 16 Oeste 0 -- -- 91
2020-02-04 07:00:00 10 3 Sudoeste 5 Sur 0 -- -- 90
2020-02-04 06:00:00 9.7 0 Calma 6 Sudoeste 0 -- -- 87
2020-02-04 05:00:00 9.1 3 Noroeste 6 Sudoeste 0 -- -- 88
2020-02-04 04:00:00 8 4 Sur 8 Sur 0 -- -- 90
2020-02-04 03:00:00 7.1 3 Sur 11 Sudeste 0 -- -- 89
2020-02-04 02:00:00 8.1 9 Sudeste 14 Sudeste 0 -- -- 86
2020-02-04 01:00:00 8.7 9 Sudeste 12 Sudeste 0 -- -- 84
2020-02-04 00:00:00 8.5 10 Sudeste 13 Sudeste 0 -- -- 81
2020-02-03 23:00:00 9 8 Sudeste 12 Sudeste 0 -- -- 78
2020-02-03 22:00:00 9.7 6 Sudeste 14 Sudeste 0 -- -- 74
2020-02-03 21:00:00 12.6 3 Nordeste 18 Sudoeste 0 -- -- 62
2020-02-03 20:00:00 15.6 10 Sur 19 Sudoeste 0 -- -- 49
2020-02-03 19:00:00 16.1 9 Sudoeste 25 Sudoeste 0 -- -- 51
2020-02-03 18:00:00 17.4 3 Sudeste 5 Sudoeste 0 -- -- 58
2020-02-03 17:00:00 21 2 Sur 12 Oeste 0 -- -- 48
2020-02-03 16:00:00 21.2 8 Oeste 15 Oeste 0 -- -- 53
2020-02-03 15:00:00 20.7 3 Sudoeste 6 Norte 0 -- -- 54
2020-02-03 14:00:00 18.7 2 Norte 8 Noroeste 0 -- -- 63
2020-02-03 13:00:00 17.5 2 Norte 6 Noroeste 0 -- -- 65
2020-02-03 12:00:00 16.1 0 Calma 6 Sudoeste 0 -- -- 74
2020-02-03 11:00:00 14.2 0 Calma 9 Sudeste 0 -- -- 82
2020-02-03 10:00:00 10.7 8 Sudeste 15 Sudeste 0 -- -- 84
2020-02-03 09:00:00 7.9 13 Sudeste 16 Sudeste 0 -- -- 90
2020-02-03 08:00:00 7.8 13 Sudeste 15 Sudeste 0 -- -- 91
2020-02-03 07:00:00 8 13 Sudeste 16 Sudeste 0 -- -- 93
2020-02-03 06:00:00 7.4 10 Sudeste 14 Sudeste 0 -- -- 95
2020-02-03 05:00:00 7.9 10 Sudeste 14 Sudeste 0 -- -- 96
2020-02-03 04:00:00 8.1 10 Sudeste 14 Sudeste 0 -- -- 95
2020-02-03 03:00:00 8.3 11 Sudeste 14 Sudeste 0 -- -- 93
2020-02-03 02:00:00 8.3 11 Sudeste 14 Sudeste 0 -- -- 93
2020-02-03 01:00:00 8.5 11 Sudeste 14 Sudeste 0 -- -- 92
2020-02-03 00:00:00 8.4 10 Sudeste 13 Sudeste 0 -- -- 93
2020-02-02 23:00:00 9.2 9 Sudeste 13 Sudeste 0 -- -- 91
2020-02-02 22:00:00 9.7 7 Sudeste 11 Sudeste 0 -- -- 92
2020-02-02 21:00:00 9.6 8 Sudeste 14 Sudeste 0 -- -- 91
2020-02-02 20:00:00 10.6 10 Sudeste 13 Sudeste 0 -- -- 88
2020-02-02 19:00:00 11.9 9 Sudeste 11 Sudeste 0 -- -- 84
2020-02-02 18:00:00 15.4 3 Sudeste 27 Oeste 0 -- -- 75
2020-02-02 17:00:00 17.1 7 Oeste 26 Sudoeste 0 -- -- 71
2020-02-02 16:00:00 17.9 14 Sudoeste 27 Oeste 0 -- -- 63
2020-02-02 15:00:00 16.4 15 Oeste 25 Oeste 0 -- -- 73
2020-02-02 14:00:00 17.5 14 Oeste 26 Oeste 0 -- -- 72
2020-02-02 13:00:00 17.1 4 Oeste 10 Oeste 0 -- -- 72
2020-02-02 12:00:00 15.9 3 Noroeste 8 Nordeste 0 -- -- 74
2020-02-02 11:00:00 14.1 4 Nordeste 9 Sudeste 0 -- -- 82
2020-02-02 10:00:00 10 6 Sudeste 10 Sudeste 0 -- -- 93
2020-02-02 09:00:00 8.3 8 Sudeste 12 Sudeste 0 -- -- 96
2020-02-02 08:00:00 8.4 10 Sudeste 12 Sudeste 0 -- -- 95
2020-02-02 07:00:00 10.3 0 Calma 5 Sudoeste 0 -- -- 88
2020-02-02 06:00:00 11.4 3 Norte 17 Sudoeste 0 -- -- 88
2020-02-02 05:00:00 11.5 5 Este 12 Nordeste 0 -- -- 87
2020-02-02 04:00:00 10.9 5 Este 8 Este 0 -- -- 92
2020-02-02 03:00:00 10.7 6 Sudeste 14 Sudeste 0 -- -- 91
2020-02-02 02:00:00 10.8 6 Sudeste 10 Sudeste 0 -- -- 91
2020-02-02 01:00:00 12.8 4 Sudoeste 28 Sudoeste 0 -- -- 84
2020-02-02 00:00:00 13.4 13 Sudoeste 23 Sudoeste 0 -- -- 83
2020-02-01 23:00:00 12.2 5 Sur 14 Sudoeste 0 -- -- 87
2020-02-01 22:00:00 10.6 4 Sudeste 10 Sudeste 0 -- -- 90
2020-02-01 21:00:00 11.3 9 Sudeste 13 Sur 0 -- -- 90
2020-02-01 20:00:00 12.9 8 Sudeste 18 Este 0 -- -- 83
2020-02-01 19:00:00 12.8 6 Sur 12 Sudoeste 0 -- -- 83
2020-02-01 18:00:00 15.5 5 Sudoeste 20 Sudoeste 0 -- -- 75
2020-02-01 17:00:00 16.4 10 Oeste 24 Oeste 0 -- -- 74
2020-02-01 16:00:00 17.1 6 Oeste 22 Sudoeste 0 -- -- 72
2020-02-01 15:00:00 16.6 11 Oeste 28 Oeste 0 -- -- 74
2020-02-01 14:00:00 16 7 Oeste 19 Oeste 0 -- -- 75
2020-02-01 13:00:00 15.7 10 Oeste 20 Oeste 0 -- -- 77
2020-02-01 12:00:00 14.4 4 Sudeste 7 Sudeste 0 -- -- 88
2020-02-01 11:00:00 13.3 4 Norte 8 Sudeste 0 -- -- 90
2020-02-01 10:00:00 10.9 5 Sudeste 8 Sudeste 0 -- -- 99
2020-02-01 09:00:00 10.1 6 Sudeste 9 Sudeste 0 -- -- 97
2020-02-01 08:00:00 11.2 4 Sudeste 8 Sudeste 0 -- -- 95
2020-02-01 07:00:00 12.4 6 Oeste 17 Oeste 0 -- -- 91
2020-02-01 06:00:00 11.8 5 Noroeste 17 Oeste 0 -- -- 96
2020-02-01 05:00:00 11.7 3 Nordeste 13 Sudoeste 0.6 -- -- 94
2020-02-01 04:00:00 12.3 5 Sudoeste 19 Sudoeste 0.8 -- -- 90
2020-02-01 03:00:00 12.5 8 Sur 17 Sudoeste 1.2 -- -- 84
2020-02-01 02:00:00 13.4 4 Sur 33 Sudoeste 0 -- -- 75
2020-02-01 01:00:00 13.8 17 Sudoeste 36 Sudoeste 0 -- -- 73
2020-02-01 00:00:00 13.8 13 Sudoeste 33 Oeste 0 -- -- 76
2020-01-31 23:00:00 13.3 11 Sur 25 Sudoeste 0 -- -- 74
2020-01-31 22:00:00 12.9 12 Sur 30 Sudoeste 0 -- -- 75
2020-01-31 21:00:00 10.9 5 Sudoeste 15 Sudoeste 0 -- -- 82
2020-01-31 20:00:00 11.1 5 Sur 20 Sur 0 -- -- 80
2020-01-31 19:00:00 11.5 3 Sudoeste 14 Oeste 0 -- -- 80
2020-01-31 18:00:00 13.4 8 Sudoeste 17 Sudoeste 0 -- -- 75
2020-01-31 17:00:00 14.5 13 Oeste 24 Oeste 0 -- -- 74
2020-01-31 16:00:00 15.9 12 Oeste 30 Oeste 0 -- -- 71
2020-01-31 15:00:00 15.9 15 Oeste 25 Oeste 0 -- -- 72
2020-01-31 14:00:00 14 5 Sudoeste 18 Oeste 0 -- -- 79
2020-01-31 13:00:00 13.9 6 Sudoeste 15 Oeste 0 -- -- 77
2020-01-31 12:00:00 13.6 3 Sudoeste 9 Sudoeste 0 -- -- 78
2020-01-31 11:00:00 12.3 0 Calma 6 Sudeste 0 -- -- 84
2020-01-31 10:00:00 8.7 6 Sudeste 12 Sudeste 0 -- -- 98
2020-01-31 09:00:00 5.5 8 Sudeste 13 Sudeste 0 -- -- 99
2020-01-31 08:00:00 5.5 9 Sudeste 13 Sudeste 0 -- -- 99
2020-01-31 07:00:00 5.9 10 Sudeste 13 Sudeste 0 -- -- 99
2020-01-31 06:00:00 5.9 7 Sudeste 9 Sudeste 0 -- -- 98
2020-01-31 05:00:00 6.1 6 Sudeste 10 Sudeste 0 -- -- 97
2020-01-31 04:00:00 6.7 9 Sudeste 12 Sudeste 0 -- -- 96
2020-01-31 03:00:00 7.6 8 Sudeste 10 Sudeste 0 -- -- 95
2020-01-31 02:00:00 8.6 6 Sudeste 9 Sudeste 0 -- -- 94
2020-01-31 01:00:00 8.4 5 Sudeste 9 Sudeste 0 -- -- 94
2020-01-31 00:00:00 8.2 7 Sudeste 9 Sudeste 0 -- -- 93
2020-01-30 23:00:00 9.5 5 Sudeste 10 Sudoeste 0 -- -- 90
2020-01-30 22:00:00 10.4 9 Oeste 18 Oeste 0 -- -- 86
2020-01-30 21:00:00 9.9 6 Sudoeste 16 Sudoeste 0.2 -- -- 89
2020-01-30 20:00:00 10.2 5 Oeste 15 Oeste 0 -- -- 85
2020-01-30 19:00:00 10.5 8 Sudoeste 25 Oeste 0 -- -- 82
2020-01-30 18:00:00 11.1 15 Oeste 24 Oeste 0 -- -- 78
2020-01-30 17:00:00 11.9 12 Oeste 22 Oeste 0 -- -- 77
2020-01-30 16:00:00 13.4 9 Oeste 22 Oeste 0 -- -- 71
2020-01-30 15:00:00 13.4 14 Oeste 26 Sudoeste 0 -- -- 70
2020-01-30 14:00:00 13.8 7 Sudoeste 28 Sudoeste 0 -- -- 70
2020-01-30 13:00:00 13.2 13 Sudoeste 28 Sudoeste 0 -- -- 69
2020-01-30 12:00:00 12.5 8 Oeste 25 Oeste 0 -- -- 73
2020-01-30 11:00:00 10.6 5 Sudoeste 17 Sudoeste 0 -- -- 83
2020-01-30 10:00:00 10.4 10 Sudoeste 29 Sudoeste 0 -- -- 84
2020-01-30 09:00:00 9.4 3 Sudoeste 18 Oeste 0 -- -- 87
2020-01-30 08:00:00 8.8 4 Sudeste 10 Sudeste 0 -- -- 93
2020-01-30 07:00:00 9.8 4 Sudeste 12 Sudoeste 0 -- -- 92
2020-01-30 06:00:00 10.5 5 Sudoeste 18 Sudoeste 0 -- -- 88
2020-01-30 05:00:00 10.2 4 Oeste 8 Oeste 0.8 -- -- 95
2020-01-30 04:00:00 10.8 0 Calma 13 Sudoeste 0.6 -- -- 92
2020-01-30 03:00:00 11.1 5 Oeste 22 Sudoeste 0 -- -- 90
2020-01-30 02:00:00 10.3 6 Sudeste 8 Sudeste 0.4 -- -- 97
2020-01-30 01:00:00 10.4 0 Calma 10 Sur 0.6 -- -- 96
2020-01-30 00:00:00 10.4 2 Nordeste 5 Sudeste 0.2 -- -- 95
2020-01-29 23:00:00 10.8 0 Calma 14 Sudoeste 0.6 -- -- 92
2020-01-29 22:00:00 10.8 4 Sur 8 Sur 0.4 -- -- 92
2020-01-29 21:00:00 10.9 3 Nordeste 6 Este 0 -- -- 89
2020-01-29 20:00:00 11.1 3 Oeste 14 Sur 0.4 -- -- 87
2020-01-29 19:00:00 11.3 8 Sudoeste 30 Sur 0.2 -- -- 85
2020-01-29 18:00:00 12.1 13 Sudoeste 40 Sur 0 -- -- 78
2020-01-29 17:00:00 12.6 17 Sudoeste 40 Sudoeste 0 -- -- 73
2020-01-29 16:00:00 12.8 11 Sudoeste 32 Sudoeste 0 -- -- 74
2020-01-29 15:00:00 13.7 9 Sudoeste 27 Oeste 0 -- -- 72
2020-01-29 14:00:00 12.9 15 Oeste 27 Oeste 0 -- -- 77
2020-01-29 13:00:00 12 3 Noroeste 6 Noroeste 0 -- -- 83
2020-01-29 12:00:00 9.5 2 Norte 7 Norte 0 -- -- 97
2020-01-29 11:00:00 7.9 2 Sudeste 6 Sudoeste 0 -- -- 97
2020-01-29 10:00:00 6.8 2 Sur 5 Norte 0 -- -- 97
2020-01-29 09:00:00 6.5 2 Sur 6 Sudeste 0 -- -- 98
2020-01-29 08:00:00 5.9 3 Sudeste 8 Oeste 0 -- -- 97
2020-01-29 07:00:00 5.9 0 Calma 4 Sur 0 -- -- 97
2020-01-29 06:00:00 5.6 3 Sudeste 6 Norte 0 -- -- 97
2020-01-29 05:00:00 5.5 3 Sur 6 Nordeste 0 -- -- 98
2020-01-29 04:00:00 5.2 0 Calma 6 Sudeste 0 -- -- 97
2020-01-29 03:00:00 4.5 0 Calma 6 Sudeste 0 -- -- 98
2020-01-29 02:00:00 3 3 Sudeste 9 Sudeste 0 -- -- 98
2020-01-29 01:00:00 2.4 8 Sudeste 11 Sudeste 0 -- -- 97
2020-01-29 00:00:00 2.3 8 Sudeste 11 Sudeste 0 -- -- 96
2020-01-28 23:00:00 2.5 8 Sudeste 10 Sudeste 0 -- -- 95
2020-01-28 22:00:00 3.3 9 Sudeste 12 Sudeste 0 -- -- 94
2020-01-28 21:00:00 3.8 9 Sudeste 12 Sudeste 0 -- -- 91
2020-01-28 20:00:00 5 9 Sudeste 14 Sudeste 0 -- -- 89
2020-01-28 19:00:00 6.6 9 Sudeste 13 Sudeste 0 -- -- 84
2020-01-28 18:00:00 9.9 4 Sur 9 Sudoeste 0 -- -- 75
2020-01-28 17:00:00 13.5 3 Sudoeste 9 Oeste 0 -- -- 64
2020-01-28 16:00:00 13.9 3 Nordeste 10 Sudoeste 0 -- -- 63
2020-01-28 15:00:00 13.1 6 Oeste 11 Sudoeste 0 -- -- 67
2020-01-28 14:00:00 12.2 5 Sudoeste 13 Sudoeste 0 -- -- 72
2020-01-28 13:00:00 11.5 7 Sur 12 Sudoeste 0 -- -- 73
2020-01-28 12:00:00 10 5 Sudoeste 8 Sudoeste 0 -- -- 84
2020-01-28 11:00:00 8.2 4 Noroeste 16 Este 0 -- -- 91
2020-01-28 10:00:00 7 3 Norte 7 Sudeste 0 -- -- 95
2020-01-28 09:00:00 6.6 3 Sudeste 8 Sudeste 0 -- -- 95
2020-01-28 08:00:00 5.3 6 Sudeste 9 Sudeste 0 -- -- 93
2020-01-28 07:00:00 7.2 3 Sudeste 11 Oeste 0 -- -- 88
2020-01-28 06:00:00 8.5 4 Sudoeste 21 Sudoeste 0 -- -- 85
2020-01-28 05:00:00 9.8 14 Sudoeste 45 Sudoeste 0 -- -- 81
2020-01-28 04:00:00 10.4 14 Sudoeste 44 Sudoeste 0 -- -- 79
2020-01-28 03:00:00 10.5 18 Sudoeste 44 Sudoeste 0 -- -- 81
2020-01-28 02:00:00 10.4 19 Sudoeste 44 Sudoeste 0 -- -- 81
2020-01-28 01:00:00 10.4 25 Oeste 46 Oeste 0 -- -- 78
2020-01-28 00:00:00 10.3 15 Oeste 53 Sudoeste 0 -- -- 78
2020-01-27 23:00:00 10.6 22 Sudoeste 68 Oeste 0 -- -- 76
2020-01-27 22:00:00 10.7 25 Sudoeste 65 Sudoeste 0 -- -- 76
2020-01-27 21:00:00 10.6 23 Sudoeste 50 Sudoeste 0 -- -- 77
2020-01-27 20:00:00 10.6 22 Sudoeste 50 Sudoeste 0 -- -- 77
2020-01-27 19:00:00 10.5 18 Sudoeste 48 Sudoeste 0 -- -- 77
2020-01-27 18:00:00 10.4 17 Sudoeste 41 Sur 0 -- -- 80
2020-01-27 17:00:00 9.1 21 Sur 35 Sur 0 -- -- 81
2020-01-27 16:00:00 8.8 14 Sur 34 Sur 0 -- -- 79
2020-01-27 15:00:00 8.7 24 Sur 39 Sur 0 -- -- 79
2020-01-27 14:00:00 8.5 15 Sur 30 Sudoeste 0 -- -- 80
2020-01-27 13:00:00 8.9 11 Sur 24 Sur 0 -- -- 73
2020-01-27 12:00:00 9 11 Sur 31 Sur 0 -- -- 66
2020-01-27 11:00:00 8.8 13 Sur 33 Sudoeste 0 -- -- 66
2020-01-27 10:00:00 8.3 16 Sur 39 Sudoeste 0 -- -- 68
2020-01-27 09:00:00 8.2 10 Sudoeste 23 Oeste 0 -- -- 70
2020-01-27 08:00:00 8.1 11 Sur 28 Sur 0 -- -- 71
2020-01-27 07:00:00 7.8 12 Sur 27 Sudoeste 0 -- -- 73
2020-01-27 06:00:00 7.5 8 Sudoeste 31 Sudoeste 0 -- -- 73
2020-01-27 05:00:00 6.6 8 Sudoeste 21 Sudoeste 0 -- -- 79
2020-01-27 04:00:00 6.4 6 Sudoeste 22 Sudoeste 0 -- -- 80
2020-01-27 03:00:00 6.1 4 Sudeste 14 Sur 0 -- -- 80
2020-01-27 02:00:00 6.5 9 Sur 29 Sur 0 -- -- 74
2020-01-27 01:00:00 5.5 8 Sudoeste 18 Oeste 0 -- -- 79
2020-01-27 00:00:00 5.7 9 Sudoeste 21 Sudoeste 0 -- -- 77
2020-01-26 23:00:00 2 4 Este 11 Sudeste 0 -- -- 92
2020-01-26 22:00:00 2.3 6 Sudeste 10 Sudeste 0 -- -- 93
2020-01-26 21:00:00 1.8 6 Sudeste 9 Sudeste 0 -- -- 93
2020-01-26 20:00:00 2.9 6 Sudeste 9 Sudeste 0 -- -- 92
2020-01-26 19:00:00 5.5 3 Sur 12 Sudoeste 0 -- -- 82
2020-01-26 18:00:00 7.5 8 Sudoeste 18 Sudoeste 0 -- -- 75
2020-01-26 17:00:00 9.2 9 Oeste 21 Oeste 0 -- -- 74
2020-01-26 16:00:00 10 2 Sudoeste 9 Sur 0 -- -- 74
2020-01-26 15:00:00 8.6 2 Sudeste 8 Este 0 -- -- 85
2020-01-26 14:00:00 6.2 3 Sudeste 8 Noroeste 0 -- -- 96
2020-01-26 13:00:00 5.3 3 Norte 9 Norte 0 -- -- 100
2020-01-26 12:00:00 5.1 4 Nordeste 8 Noroeste 0 -- -- 100
2020-01-26 11:00:00 4.4 3 Noroeste 8 Oeste 0 -- -- 99
2020-01-26 10:00:00 4.5 0 Calma 9 Sudeste 0 -- -- 99
2020-01-26 09:00:00 3.3 3 Sudeste 6 Nordeste 0 -- -- 99
2020-01-26 08:00:00 4.6 5 Sudeste 7 Sudeste 0 -- -- 99
2020-01-26 07:00:00 4.9 5 Noroeste 10 Oeste 0 -- -- 99
2020-01-26 06:00:00 5.1 4 Oeste 7 Noroeste 0 -- -- 98
2020-01-26 05:00:00 5.5 6 Noroeste 10 Noroeste 0 -- -- 97
2020-01-26 04:00:00 5.5 5 Sudeste 9 Sudoeste 0 -- -- 96
2020-01-26 03:00:00 5.8 3 Sur 9 Sudoeste 0 -- -- 95
2020-01-26 02:00:00 6 0 Calma 8 Sudoeste 0.2 -- -- 97
2020-01-26 01:00:00 6.2 5 Sudoeste 10 Sudoeste 0 -- -- 98
2020-01-26 00:00:00 6.4 4 Oeste 8 Oeste 0 -- -- 97
2020-01-25 23:00:00 6.6 2 Sudoeste 6 Sudeste 0 -- -- 96
2020-01-25 22:00:00 6.8 3 Este 19 Sur 0.4 -- -- 94
2020-01-25 21:00:00 7.2 10 Sudeste 32 Sudeste 1.6 -- -- 92
2020-01-25 20:00:00 7.3 20 Sudeste 39 Sudeste 0 -- -- 90
2020-01-25 19:00:00 7.4 24 Sudeste 42 Sudeste 0 -- -- 88
2020-01-25 18:00:00 7.2 26 Sudeste 40 Sudeste 0 -- -- 90
2020-01-25 17:00:00 7.3 25 Sudeste 47 Sudeste 0 -- -- 89
2020-01-25 16:00:00 7.1 30 Sudeste 50 Sudeste 0 -- -- 89
2020-01-25 15:00:00 8 26 Sudeste 47 Sudeste 0 -- -- 85
2020-01-25 14:00:00 7.6 23 Sudeste 44 Sudeste 0.2 -- -- 88
2020-01-25 13:00:00 7.2 17 Sudeste 44 Sudeste 0 -- -- 90
2020-01-25 12:00:00 7.4 28 Sudeste 47 Sudeste 0 -- -- 88
2020-01-25 11:00:00 7.4 21 Sudeste 42 Sudeste 0 -- -- 87
2020-01-25 10:00:00 7.3 21 Sudeste 39 Sudeste 0 -- -- 83
2020-01-25 09:00:00 6.4 23 Sudeste 40 Sudeste 0 -- -- 83
2020-01-25 08:00:00 6.1 22 Sudeste 38 Sudeste 0 -- -- 86
2020-01-25 07:00:00 6.3 20 Sudeste 37 Sudeste 0 -- -- 86
2020-01-25 06:00:00 6.4 23 Sudeste 40 Sudeste 0 -- -- 86
2020-01-25 05:00:00 6.3 25 Sudeste 42 Sudeste 0 -- -- 86
2020-01-25 04:00:00 6.3 23 Sudeste 40 Sudeste 0 -- -- 87
2020-01-25 03:00:00 6.5 22 Sudeste 36 Sudeste 0 -- -- 87
2020-01-25 02:00:00 6.8 9 Sudeste 30 Sudeste 0 -- -- 85
2020-01-25 01:00:00 6.8 21 Sudeste 35 Sudeste 0 -- -- 87
2020-01-25 00:00:00 7 23 Sudeste 36 Sudeste 0 -- -- 86
2020-01-24 23:00:00 7 19 Sudeste 36 Sudeste 0 -- -- 85
2020-01-24 22:00:00 7.4 21 Sudeste 41 Sudeste 0 -- -- 84
2020-01-24 21:00:00 7.4 20 Sudeste 33 Sudeste 0 -- -- 85
2020-01-24 20:00:00 6.9 2 Nordeste 17 Sudeste 0 -- -- 86
2020-01-24 19:00:00 7 5 Sur 17 Nordeste 0 -- -- 84
2020-01-24 18:00:00 7.9 7 Este 18 Este 0 -- -- 80
2020-01-24 17:00:00 9.2 5 Sudeste 18 Este 0 -- -- 75
2020-01-24 16:00:00 9.5 11 Sudeste 21 Sudeste 0 -- -- 75
2020-01-24 15:00:00 9.8 7 Sudeste 24 Sudeste 0 -- -- 73
2020-01-24 14:00:00 9.1 10 Norte 18 Norte 0 -- -- 79
2020-01-24 13:00:00 8.3 8 Nordeste 26 Sudeste 0 -- -- 81
2020-01-24 12:00:00 8.9 7 Norte 28 Nordeste 0 -- -- 81
2020-01-24 11:00:00 7.6 8 Norte 27 Este 0 -- -- 84
2020-01-24 10:00:00 5.9 18 Este 32 Este 0 -- -- 89
2020-01-24 09:00:00 5.5 12 Sudeste 37 Este 0 -- -- 90
2020-01-24 08:00:00 5.6 20 Sudeste 57 Sudeste 0 -- -- 90
2020-01-24 07:00:00 5.5 34 Sudeste 65 Sudeste 0 -- -- 90
2020-01-24 06:00:00 5.7 38 Sudeste 60 Sudeste 0 -- -- 90
2020-01-24 05:00:00 5.4 35 Sudeste 56 Sudeste 0 -- -- 91
2020-01-24 04:00:00 5.4 32 Sudeste 57 Sudeste 0 -- -- 91
2020-01-24 03:00:00 5.4 33 Sudeste 56 Sudeste 0 -- -- 91
2020-01-24 02:00:00 5.4 36 Sudeste 57 Sudeste 0 -- -- 91
2020-01-24 01:00:00 5.4 38 Sudeste 63 Sudeste 0 -- -- 91
2020-01-24 00:00:00 5.2 36 Sudeste 58 Sudeste 0 -- -- 92
2020-01-23 23:00:00 5.3 34 Sudeste 60 Sudeste 0 -- -- 93
2020-01-23 22:00:00 5.3 35 Sudeste 55 Sudeste 0 -- -- 94
2020-01-23 21:00:00 5.3 35 Sudeste 60 Sudeste 0 -- -- 93
2020-01-23 20:00:00 5.4 31 Sudeste 54 Sudeste 0 -- -- 92
2020-01-23 19:00:00 5.8 23 Sudeste 45 Sudeste 0 -- -- 89
2020-01-23 18:00:00 6 14 Sudeste 31 Este 0 -- -- 88
2020-01-23 17:00:00 6.2 10 Sudeste 27 Este 0 -- -- 87
2020-01-23 16:00:00 6.7 6 Norte 21 Sudeste 0 -- -- 87
2020-01-23 15:00:00 6.9 3 Noroeste 7 Noroeste 0 -- -- 92
2020-01-23 14:00:00 6.1 4 Norte 6 Norte 0 -- -- 95
2020-01-23 13:00:00 5.7 3 Norte 5 Norte 0 -- -- 96
2020-01-23 12:00:00 5.1 3 Norte 5 Noroeste 0 -- -- 99
2020-01-23 11:00:00 4.5 2 Norte 4 Nordeste 0 -- -- 100
2020-01-23 10:00:00 3.5 2 Sudoeste 6 Sudoeste 0 -- -- 99
2020-01-23 09:00:00 3.8 3 Norte 7 Oeste 0 -- -- 97
2020-01-23 08:00:00 4.4 3 Sur 9 Sudeste 0 -- -- 95
2020-01-23 07:00:00 5.2 5 Sudeste 14 Nordeste 0 -- -- 94
2020-01-23 06:00:00 5.2 3 Nordeste 8 Noroeste 0 -- -- 95
2020-01-23 05:00:00 5.2 0 Calma 9 Norte 0 -- -- 97
2020-01-23 04:00:00 4.5 5 Nordeste 12 Norte 0 -- -- 100
2020-01-23 03:00:00 3.8 6 Nordeste 12 Norte 0 -- -- 99
2020-01-23 02:00:00 4.2 3 Sudeste 6 Sudeste 0 -- -- 99
2020-01-23 01:00:00 4.3 2 Nordeste 5 Oeste 0 -- -- 98
2020-01-23 00:00:00 4.7 3 Sur 5 Sur 0 -- -- 99
2020-01-22 23:00:00 4.5 0 Calma 5 Sudeste 0 -- -- 98
2020-01-22 22:00:00 4.8 4 Sur 7 Sudeste 0.2 -- -- 97
2020-01-22 21:00:00 4.8 6 Sudeste 9 Sudeste 0 -- -- 97
2020-01-22 20:00:00 5.6 3 Sur 10 Norte 0 -- -- 95
2020-01-22 19:00:00 6.1 0 Calma 14 Nordeste 1.4 -- -- 93
2020-01-22 18:00:00 7.2 4 Este 12 Este 0 -- -- 85
2020-01-22 17:00:00 7.5 2 Sudoeste 5 Norte 0 -- -- 83
2020-01-22 16:00:00 7.6 3 Norte 5 Noroeste 0 -- -- 81
2020-01-22 15:00:00 7 3 Sudoeste 8 Oeste 0 -- -- 86
2020-01-22 14:00:00 6.9 3 Oeste 8 Oeste 0 -- -- 88
2020-01-22 13:00:00 5.6 3 Oeste 6 Oeste 0 -- -- 91
2020-01-22 12:00:00 5 3 Noroeste 6 Noroeste 0 -- -- 92
2020-01-22 11:00:00 4.1 3 Noroeste 5 Noroeste 0 -- -- 98
2020-01-22 10:00:00 2.9 3 Norte 4 Oeste 0 -- -- 98
2020-01-22 09:00:00 2.5 0 Calma 3 Este 0 -- -- 99
2020-01-22 08:00:00 2.5 2 Nordeste 3 Nordeste 0 -- -- 98
2020-01-22 07:00:00 2.5 0 Calma 6 Sur 0 -- -- 98
2020-01-22 06:00:00 2.4 2 Nordeste 8 Sudeste 0 -- -- 98
2020-01-22 05:00:00 2.2 4 Este 5 Norte 0 -- -- 97
2020-01-22 04:00:00 2.6 5 Nordeste 13 Este 0 -- -- 96
2020-01-22 03:00:00 2.5 3 Sudeste 7 Sudeste 0 -- -- 97
2020-01-22 02:00:00 2.2 0 Calma 6 Sudoeste 0 -- -- 97
2020-01-22 01:00:00 1.8 0 Calma 6 Sudoeste 0 -- -- 97
2020-01-22 00:00:00 1.5 3 Este 5 Este 0 -- -- 96